createdAt,value
2018-12-16T00:01:15.285Z,-0.05
2018-12-16T00:03:42.930Z,-0.01
2018-12-16T00:06:10.356Z,0.01
2018-12-16T00:08:37.933Z,0.04
2018-12-16T00:11:05.408Z,0.05
2018-12-16T00:13:32.863Z,0.06
2018-12-16T00:16:00.308Z,0.06
2018-12-16T00:18:27.766Z,0.08
2018-12-16T00:20:55.216Z,0.11
2018-12-16T00:23:22.685Z,0.13
2018-12-16T00:25:50.098Z,0.12
2018-12-16T00:28:17.533Z,0.14
2018-12-16T00:30:45.046Z,0.22
2018-12-16T00:33:12.479Z,0.30
2018-12-16T00:35:40.075Z,0.35
2018-12-16T00:38:07.509Z,0.40
2018-12-16T00:40:34.993Z,0.45
2018-12-16T00:43:02.410Z,0.51
2018-12-16T00:45:29.849Z,0.54
2018-12-16T00:47:57.333Z,0.55
2018-12-16T00:50:24.898Z,0.55
2018-12-16T00:52:52.309Z,0.55
2018-12-16T00:55:19.739Z,0.56
2018-12-16T00:57:47.190Z,0.56
2018-12-16T01:00:14.714Z,0.57
2018-12-16T01:02:43.125Z,0.57
2018-12-16T01:05:10.844Z,0.58
2018-12-16T01:07:38.315Z,0.58
2018-12-16T01:10:07.534Z,0.59
2018-12-16T01:12:35.007Z,0.60
2018-12-16T01:15:02.544Z,0.59
2018-12-16T01:17:29.980Z,0.62
2018-12-16T01:19:57.581Z,0.66
2018-12-16T01:22:25.025Z,0.64
2018-12-16T01:24:52.503Z,0.65
2018-12-16T01:27:20.051Z,0.67
2018-12-16T01:29:47.473Z,0.69
2018-12-16T01:32:14.897Z,0.69
2018-12-16T01:34:42.327Z,0.73
2018-12-16T01:37:09.853Z,0.74
2018-12-16T01:39:37.329Z,0.75
2018-12-16T01:42:04.799Z,0.76
2018-12-16T01:44:32.221Z,0.73
2018-12-16T01:46:59.697Z,0.72
2018-12-16T01:49:27.165Z,0.69
2018-12-16T01:51:54.579Z,0.65
2018-12-16T01:54:22.083Z,0.64
2018-12-16T01:56:49.525Z,0.61
2018-12-16T01:59:16.977Z,0.63
2018-12-16T02:01:46.423Z,0.69
2018-12-16T02:04:13.851Z,0.76
2018-12-16T02:06:41.317Z,0.79
2018-12-16T02:09:10.739Z,0.86
2018-12-16T02:11:38.156Z,0.90
2018-12-16T02:14:05.625Z,0.93
2018-12-16T02:16:33.079Z,0.97
2018-12-16T02:19:00.509Z,1.00
2018-12-16T02:21:27.914Z,0.99
2018-12-16T02:23:55.415Z,1.03
2018-12-16T02:26:22.911Z,1.06
2018-12-16T02:28:50.362Z,1.09
2018-12-16T02:31:17.783Z,1.09
2018-12-16T02:33:45.214Z,1.07
2018-12-16T02:36:12.744Z,1.05
2018-12-16T02:38:40.193Z,1.09
2018-12-16T02:41:07.718Z,1.12
2018-12-16T02:43:35.230Z,1.10
2018-12-16T02:46:02.760Z,1.11
2018-12-16T02:48:30.244Z,1.14
2018-12-16T02:50:57.648Z,1.20
2018-12-16T02:53:25.142Z,1.21
2018-12-16T02:55:52.606Z,1.24
2018-12-16T02:58:20.055Z,1.27
2018-12-16T03:00:47.481Z,1.29
2018-12-16T03:03:14.952Z,1.31
2018-12-16T03:05:42.439Z,1.31
2018-12-16T03:08:09.889Z,1.32
2018-12-16T03:10:37.352Z,1.29
2018-12-16T03:13:04.798Z,1.31
2018-12-16T03:15:32.394Z,1.33
2018-12-16T03:17:59.820Z,1.35
2018-12-16T03:20:27.262Z,1.35
2018-12-16T03:22:54.738Z,1.34
2018-12-16T03:25:22.149Z,1.35
2018-12-16T03:27:49.604Z,1.37
2018-12-16T03:30:17.106Z,1.36
2018-12-16T03:32:44.548Z,1.39
2018-12-16T03:35:11.979Z,1.44
2018-12-16T03:37:39.505Z,1.47
2018-12-16T03:40:07.445Z,1.49
2018-12-16T03:42:34.887Z,1.54
2018-12-16T03:45:02.371Z,1.52
2018-12-16T03:47:29.802Z,1.49
2018-12-16T03:49:57.569Z,1.52
2018-12-16T03:52:25.025Z,1.55
2018-12-16T03:54:52.487Z,1.57
2018-12-16T03:57:19.928Z,1.59
2018-12-16T03:59:47.338Z,1.61
2018-12-16T04:02:14.786Z,1.60
2018-12-16T04:04:42.195Z,1.63
2018-12-16T04:07:09.638Z,1.64
2018-12-16T04:09:37.145Z,1.69
2018-12-16T04:12:04.686Z,1.67
2018-12-16T04:14:32.152Z,1.66
2018-12-16T04:16:59.604Z,1.65
2018-12-16T04:19:27.082Z,1.62
2018-12-16T04:21:54.519Z,1.64
2018-12-16T04:24:22.268Z,1.67
2018-12-16T04:26:49.727Z,1.69
2018-12-16T04:29:17.162Z,1.70
2018-12-16T04:31:44.671Z,1.75
2018-12-16T04:34:12.210Z,1.75
2018-12-16T04:36:39.672Z,1.78
2018-12-16T04:39:07.131Z,1.76
2018-12-16T04:41:34.693Z,1.75
2018-12-16T04:44:02.117Z,1.71
2018-12-16T04:46:29.612Z,1.74
2018-12-16T04:48:57.052Z,1.76
2018-12-16T04:51:24.634Z,1.70
2018-12-16T04:53:52.043Z,1.70
2018-12-16T04:56:19.713Z,1.72
2018-12-16T04:58:47.180Z,1.73
2018-12-16T05:01:14.594Z,1.74
2018-12-16T05:03:42.101Z,1.75
2018-12-16T05:06:09.563Z,1.74
2018-12-16T05:08:37.010Z,1.75
2018-12-16T05:11:04.497Z,1.75
2018-12-16T05:13:32.020Z,1.76
2018-12-16T05:15:59.477Z,1.74
2018-12-16T05:18:27.052Z,1.69
2018-12-16T05:20:54.523Z,1.67
2018-12-16T05:23:21.963Z,1.62
2018-12-16T05:25:49.411Z,1.58
2018-12-16T05:28:16.840Z,1.52
2018-12-16T05:30:44.325Z,1.48
2018-12-16T05:33:11.760Z,1.44
2018-12-16T05:35:39.221Z,1.40
2018-12-16T05:38:06.693Z,1.39
2018-12-16T05:40:34.110Z,1.36
2018-12-16T05:43:01.537Z,1.31
2018-12-16T05:45:28.960Z,1.23
2018-12-16T05:47:56.738Z,1.18
2018-12-16T05:50:24.194Z,1.16
2018-12-16T05:52:51.660Z,1.17
2018-12-16T05:55:19.159Z,1.15
2018-12-16T05:57:46.674Z,1.16
2018-12-16T06:00:14.107Z,1.17
2018-12-16T06:02:41.520Z,1.13
2018-12-16T06:07:42.757Z,1.15
2018-12-16T06:10:10.311Z,1.12
2018-12-16T06:12:37.749Z,1.12
2018-12-16T06:15:05.331Z,1.11
2018-12-16T06:17:32.752Z,1.12
2018-12-16T06:20:00.233Z,1.15
2018-12-16T06:22:27.686Z,1.15
2018-12-16T06:24:55.144Z,1.12
2018-12-16T06:27:22.566Z,1.09
2018-12-16T06:29:50.359Z,1.03
2018-12-16T06:32:17.827Z,0.97
2018-12-16T06:34:45.287Z,0.94
2018-12-16T06:37:12.739Z,0.97
2018-12-16T06:39:40.164Z,1.00
2018-12-16T06:42:07.589Z,0.96
2018-12-16T06:44:35.127Z,0.94
2018-12-16T06:47:02.871Z,0.96
2018-12-16T06:49:30.635Z,0.96
2018-12-16T06:51:58.105Z,0.94
2018-12-16T06:54:25.537Z,0.95
2018-12-16T06:56:52.952Z,0.97
2018-12-16T06:59:20.390Z,0.95
2018-12-16T07:01:47.825Z,0.91
2018-12-16T07:04:15.279Z,0.89
2018-12-16T07:06:42.706Z,0.87
2018-12-16T07:09:10.116Z,0.87
2018-12-16T07:11:37.568Z,0.84
2018-12-16T07:14:05.005Z,0.88
2018-12-16T07:16:32.463Z,0.97
2018-12-16T07:18:59.923Z,1.04
2018-12-16T07:21:27.344Z,1.03
2018-12-16T07:23:54.941Z,1.00
2018-12-16T07:26:22.368Z,1.01
2018-12-16T07:28:49.828Z,1.06
2018-12-16T07:31:17.403Z,1.09
2018-12-16T07:33:44.939Z,1.07
2018-12-16T07:36:12.427Z,1.08
2018-12-16T07:38:39.976Z,1.14
2018-12-16T07:41:07.448Z,1.20
2018-12-16T07:43:34.929Z,1.23
2018-12-16T07:46:02.468Z,1.24
2018-12-16T07:48:30.134Z,1.27
2018-12-16T07:50:57.581Z,1.29
2018-12-16T07:53:25.041Z,1.32
2018-12-16T07:55:52.497Z,1.35
2018-12-16T07:58:20.013Z,1.36
2018-12-16T08:00:47.503Z,1.35
2018-12-16T08:03:14.977Z,1.36
2018-12-16T08:05:42.422Z,1.36
2018-12-16T08:08:09.837Z,1.39
2018-12-16T08:10:37.329Z,1.43
2018-12-16T08:13:04.759Z,1.46
2018-12-16T08:15:33.280Z,1.47
2018-12-16T08:18:00.746Z,1.49
2018-12-16T08:20:28.192Z,1.50
2018-12-16T08:22:55.623Z,1.52
2018-12-16T08:25:23.205Z,1.54
2018-12-16T08:27:50.654Z,1.56
2018-12-16T08:30:18.083Z,1.56
2018-12-16T08:32:45.510Z,1.60
2018-12-16T08:35:12.941Z,1.62
2018-12-16T08:37:40.394Z,1.63
2018-12-16T08:40:08.062Z,1.64
2018-12-16T08:42:35.489Z,1.71
2018-12-16T08:45:04.478Z,1.74
2018-12-16T08:47:33.269Z,1.78
2018-12-16T08:50:00.911Z,1.81
2018-12-16T08:52:28.347Z,1.81
2018-12-16T08:54:55.758Z,1.83
2018-12-16T08:57:23.260Z,1.85
2018-12-16T08:59:50.761Z,1.89
2018-12-16T09:02:18.240Z,1.92
2018-12-16T09:04:45.650Z,1.96
2018-12-16T09:07:13.456Z,1.98
2018-12-16T09:09:41.032Z,2.01
2018-12-16T09:12:08.461Z,2.04
2018-12-16T09:14:35.902Z,2.06
2018-12-16T09:17:03.373Z,2.06
2018-12-16T09:19:30.852Z,2.04
2018-12-16T09:21:58.286Z,2.04
2018-12-16T09:24:25.706Z,2.02
2018-12-16T09:26:53.150Z,2.04
2018-12-16T09:29:20.577Z,2.08
2018-12-16T09:31:48.023Z,2.11
2018-12-16T09:34:15.441Z,2.16
2018-12-16T09:36:43.039Z,2.22
2018-12-16T09:39:10.461Z,2.28
2018-12-16T09:41:37.963Z,2.30
2018-12-16T09:44:05.490Z,2.36
2018-12-16T09:46:32.976Z,2.44
2018-12-16T09:49:00.471Z,2.48
2018-12-16T09:51:28.000Z,2.52
2018-12-16T09:53:55.414Z,2.53
2018-12-16T09:56:22.841Z,2.57
2018-12-16T09:58:50.346Z,2.60
2018-12-16T10:01:17.818Z,2.63
2018-12-16T10:03:45.253Z,2.66
2018-12-16T10:06:12.703Z,2.67
2018-12-16T10:08:40.131Z,2.70
2018-12-16T10:11:07.701Z,2.74
2018-12-16T10:13:35.298Z,2.75
2018-12-16T10:16:02.740Z,2.77
2018-12-16T10:18:30.324Z,2.81
2018-12-16T10:20:57.784Z,2.87
2018-12-16T10:23:25.203Z,2.97
2018-12-16T10:25:52.677Z,3.04
2018-12-16T10:28:20.145Z,3.08
2018-12-16T10:30:47.699Z,3.07
2018-12-16T10:33:15.153Z,3.07
2018-12-16T10:35:42.594Z,3.06
2018-12-16T10:38:10.038Z,3.01
2018-12-16T10:40:37.548Z,2.97
2018-12-16T10:43:05.002Z,2.92
2018-12-16T10:45:32.410Z,2.90
2018-12-16T10:47:59.885Z,2.91
2018-12-16T10:50:27.341Z,2.92
2018-12-16T10:52:54.750Z,2.89
2018-12-16T10:55:22.198Z,2.84
2018-12-16T10:57:49.626Z,2.83
2018-12-16T11:00:22.704Z,2.84
2018-12-16T11:02:50.146Z,2.86
2018-12-16T11:05:17.718Z,2.85
2018-12-16T11:07:45.185Z,2.86
2018-12-16T11:10:12.756Z,2.86
2018-12-16T11:12:40.432Z,2.84
2018-12-16T11:15:07.876Z,2.87
2018-12-16T11:17:35.318Z,2.87
2018-12-16T11:20:03.299Z,2.91
2018-12-16T11:22:30.749Z,2.94
2018-12-16T11:25:05.403Z,2.93
2018-12-16T11:27:27.653Z,2.98
2018-12-16T11:29:55.187Z,2.99
2018-12-16T11:32:22.601Z,3.03
2018-12-16T11:34:50.081Z,3.02
2018-12-16T11:37:17.567Z,3.05
2018-12-16T11:39:45.108Z,3.06
2018-12-16T11:42:12.557Z,3.08
2018-12-16T11:44:40.028Z,3.09
2018-12-16T11:47:07.486Z,3.08
2018-12-16T11:49:34.951Z,3.08
2018-12-16T11:52:02.417Z,3.08
2018-12-16T11:54:29.847Z,3.10
2018-12-16T11:56:57.284Z,3.14
2018-12-16T11:59:24.697Z,3.15
2018-12-16T12:01:52.140Z,3.14
2018-12-16T12:04:19.669Z,3.17
2018-12-16T12:06:47.226Z,3.14
2018-12-16T12:09:14.681Z,3.12
2018-12-16T12:11:42.131Z,3.11
2018-12-16T12:14:09.557Z,3.09
2018-12-16T12:16:36.965Z,3.08
2018-12-16T12:19:04.381Z,3.07
2018-12-16T12:21:31.877Z,3.06
2018-12-16T12:23:59.332Z,3.06
2018-12-16T12:26:26.791Z,3.05
2018-12-16T12:28:54.243Z,3.07
2018-12-16T12:31:21.741Z,3.12
2018-12-16T12:33:49.169Z,3.16
2018-12-16T12:36:16.595Z,3.18
2018-12-16T12:38:44.061Z,3.21
2018-12-16T12:41:11.501Z,3.23
2018-12-16T12:43:38.957Z,3.27
2018-12-16T12:46:06.434Z,3.29
2018-12-16T12:48:33.919Z,3.32
2018-12-16T12:51:01.362Z,3.33
2018-12-16T12:53:28.799Z,3.34
2018-12-16T12:55:56.281Z,3.35
2018-12-16T12:58:23.693Z,3.34
2018-12-16T13:00:51.294Z,3.36
2018-12-16T13:03:18.724Z,3.43
2018-12-16T13:05:46.152Z,3.45
2018-12-16T13:08:13.660Z,3.50
2018-12-16T13:10:41.079Z,3.55
2018-12-16T13:13:08.505Z,3.57
2018-12-16T13:15:35.940Z,3.56
2018-12-16T13:18:03.385Z,3.58
2018-12-16T13:20:30.945Z,3.58
2018-12-16T13:22:58.373Z,3.58
2018-12-16T13:25:37.733Z,3.62
2018-12-16T13:28:05.163Z,3.63
2018-12-16T13:30:32.588Z,3.62
2018-12-16T13:33:00.018Z,3.62
2018-12-16T13:35:27.445Z,3.63
2018-12-16T13:37:54.881Z,3.62
2018-12-16T13:40:22.293Z,3.60
2018-12-16T13:42:49.729Z,3.56
2018-12-16T13:45:17.177Z,3.54
2018-12-16T13:47:44.637Z,3.54
2018-12-16T13:50:12.116Z,3.58
2018-12-16T13:52:39.583Z,3.61
2018-12-16T13:55:07.137Z,3.62
2018-12-16T13:57:35.601Z,3.62
2018-12-16T14:00:03.788Z,3.57
2018-12-16T14:02:31.219Z,3.55
2018-12-16T14:04:58.685Z,3.52
2018-12-16T14:07:26.141Z,3.51
2018-12-16T14:09:53.607Z,3.50
2018-12-16T14:12:21.063Z,3.50
2018-12-16T14:14:48.481Z,3.51
2018-12-16T14:17:15.969Z,3.51
2018-12-16T14:19:43.421Z,3.52
2018-12-16T14:22:10.833Z,3.50
2018-12-16T14:24:38.350Z,3.45
2018-12-16T14:27:05.910Z,3.43
2018-12-16T14:29:33.338Z,3.42
2018-12-16T14:32:00.833Z,3.45
2018-12-16T14:34:28.292Z,3.45
2018-12-16T14:36:55.752Z,3.45
2018-12-16T14:39:23.184Z,3.46
2018-12-16T14:41:50.598Z,3.46
2018-12-16T14:44:18.101Z,3.45
2018-12-16T14:46:45.555Z,3.46
2018-12-16T14:49:12.976Z,3.47
2018-12-16T14:51:40.467Z,3.45
2018-12-16T14:54:07.922Z,3.47
2018-12-16T14:56:35.372Z,3.50
2018-12-16T14:59:02.837Z,3.50
2018-12-16T15:01:30.277Z,3.48
2018-12-16T15:03:57.698Z,3.45
2018-12-16T15:06:25.111Z,3.41
2018-12-16T15:08:52.537Z,3.42
2018-12-16T15:11:20.036Z,3.44
2018-12-16T15:13:47.461Z,3.42
2018-12-16T15:16:14.941Z,3.43
2018-12-16T15:18:42.420Z,3.41
2018-12-16T15:21:09.859Z,3.42
2018-12-16T15:23:37.279Z,3.44
2018-12-16T15:26:04.780Z,3.43
2018-12-16T15:28:32.182Z,3.43
2018-12-16T15:30:59.625Z,3.42
2018-12-16T15:33:27.068Z,3.42
2018-12-16T15:35:54.509Z,3.41
2018-12-16T15:38:21.951Z,3.43
2018-12-16T15:40:49.411Z,3.45
2018-12-16T15:43:16.884Z,3.48
2018-12-16T15:45:44.306Z,3.50
2018-12-16T15:48:11.779Z,3.53
2018-12-16T15:50:39.202Z,3.55
2018-12-16T15:53:06.700Z,3.56
2018-12-16T15:55:34.123Z,3.57
2018-12-16T15:58:01.541Z,3.58
2018-12-16T16:00:29.070Z,3.59
2018-12-16T16:02:56.513Z,3.60
2018-12-16T16:05:24.204Z,3.61
2018-12-16T16:07:51.730Z,3.61
2018-12-16T16:10:19.219Z,3.61
2018-12-16T16:12:46.663Z,3.63
2018-12-16T16:15:14.139Z,3.66
2018-12-16T16:17:41.618Z,3.69
2018-12-16T16:20:09.105Z,3.72
2018-12-16T16:22:36.663Z,3.72
2018-12-16T16:25:04.399Z,3.72
2018-12-16T16:27:31.836Z,3.72
2018-12-16T16:29:59.262Z,3.72
2018-12-16T16:32:26.698Z,3.72
2018-12-16T16:34:54.194Z,3.73
2018-12-16T16:37:21.643Z,3.73
2018-12-16T16:39:49.094Z,3.73
2018-12-16T16:42:16.535Z,3.72
2018-12-16T16:46:13.371Z,3.75
2018-12-16T16:48:40.863Z,3.75
2018-12-16T16:51:08.354Z,3.77
2018-12-16T16:53:36.083Z,3.78
2018-12-16T16:56:03.557Z,3.78
2018-12-16T16:58:30.984Z,3.79
2018-12-16T17:00:58.509Z,3.80
2018-12-16T17:03:25.941Z,3.81
2018-12-16T17:05:53.798Z,3.82
2018-12-16T17:08:21.274Z,3.84
2018-12-16T17:10:48.687Z,3.86
2018-12-16T17:13:16.127Z,3.89
2018-12-16T17:15:43.709Z,3.91
2018-12-16T17:18:11.171Z,3.91
2018-12-16T17:20:38.626Z,3.91
2018-12-16T17:23:06.089Z,3.91
2018-12-16T17:25:33.507Z,3.90
2018-12-16T17:28:00.933Z,3.91
2018-12-16T17:30:28.358Z,3.90
2018-12-16T17:32:55.805Z,3.92
2018-12-16T17:35:23.241Z,3.93
2018-12-16T17:37:50.713Z,3.94
2018-12-16T17:40:18.489Z,3.94
2018-12-16T17:42:45.951Z,3.96
2018-12-16T17:45:13.496Z,3.98
2018-12-16T17:47:40.945Z,3.97
2018-12-16T17:50:08.481Z,4.00
2018-12-16T17:52:35.920Z,4.00
2018-12-16T17:55:03.752Z,4.00
2018-12-16T17:57:31.188Z,4.02
2018-12-16T17:59:58.641Z,4.01
2018-12-16T18:02:26.057Z,4.04
2018-12-16T18:04:53.587Z,4.04
2018-12-16T18:07:21.006Z,4.06
2018-12-16T18:09:48.437Z,4.09
2018-12-16T18:12:15.971Z,4.11
2018-12-16T18:14:43.688Z,4.11
2018-12-16T18:17:11.233Z,4.14
2018-12-16T18:19:38.726Z,4.17
2018-12-16T18:22:06.154Z,4.20
2018-12-16T18:24:33.633Z,4.23
2018-12-16T18:27:01.095Z,4.24
2018-12-16T18:29:28.523Z,4.25
2018-12-16T18:31:56.011Z,4.28
2018-12-16T18:34:23.433Z,4.28
2018-12-16T18:36:51.009Z,4.30
2018-12-16T18:39:18.434Z,4.29
2018-12-16T18:41:46.109Z,4.29
2018-12-16T18:44:13.586Z,4.29
2018-12-16T18:46:41.028Z,4.29
2018-12-16T18:49:08.496Z,4.31
2018-12-16T18:51:36.260Z,4.32
2018-12-16T18:54:03.748Z,4.32
2018-12-16T18:56:31.190Z,4.32
2018-12-16T18:58:58.645Z,4.33
2018-12-16T19:01:26.067Z,4.36
2018-12-16T19:03:53.500Z,4.37
2018-12-16T19:06:20.988Z,4.39
2018-12-16T19:08:48.472Z,4.40
2018-12-16T19:11:15.910Z,4.42
2018-12-16T19:13:43.395Z,4.39
2018-12-16T19:16:10.833Z,4.37
2018-12-16T19:18:38.606Z,4.36
2018-12-16T19:21:06.095Z,4.39
2018-12-16T19:23:33.626Z,4.42
2018-12-16T19:26:01.095Z,4.44
2018-12-16T19:28:28.543Z,4.44
2018-12-16T19:30:56.120Z,4.45
2018-12-16T19:33:23.655Z,4.45
2018-12-16T19:35:51.062Z,4.46
2018-12-16T19:38:18.584Z,4.47
2018-12-16T19:40:46.041Z,4.49
2018-12-16T19:43:13.457Z,4.50
2018-12-16T19:45:40.946Z,4.49
2018-12-16T19:48:08.407Z,4.49
2018-12-16T19:50:35.857Z,4.50
2018-12-16T19:53:03.285Z,4.49
2018-12-16T19:55:30.743Z,4.46
2018-12-16T19:57:58.222Z,4.44
2018-12-16T20:00:25.685Z,4.42
2018-12-16T20:02:53.127Z,4.38
2018-12-16T20:05:20.711Z,4.37
2018-12-16T20:07:48.608Z,4.40
2018-12-16T20:10:16.119Z,4.45
2018-12-16T20:12:43.563Z,4.44
2018-12-16T20:15:11.040Z,4.43
2018-12-16T20:17:38.981Z,4.45
2018-12-16T20:20:06.971Z,4.44
2018-12-16T20:22:34.412Z,4.45
2018-12-16T20:25:01.833Z,4.48
2018-12-16T20:27:29.252Z,4.50
2018-12-16T20:29:56.688Z,4.47
2018-12-16T20:32:24.119Z,4.44
2018-12-16T20:34:51.537Z,4.46
2018-12-16T20:37:19.025Z,4.49
2018-12-16T20:39:46.445Z,4.53
2018-12-16T20:42:13.939Z,4.56
2018-12-16T20:44:41.451Z,4.60
2018-12-16T20:47:08.907Z,4.62
2018-12-16T20:49:36.350Z,4.63
2018-12-16T20:52:03.821Z,4.63
2018-12-16T20:54:31.277Z,4.63
2018-12-16T20:56:58.739Z,4.63
2018-12-16T20:59:26.195Z,4.66
2018-12-16T21:01:53.623Z,4.65
2018-12-16T21:04:21.033Z,4.67
2018-12-16T21:06:48.546Z,4.68
2018-12-16T21:09:16.027Z,4.70
2018-12-16T21:12:01.338Z,4.71
2018-12-16T21:14:34.488Z,4.72
2018-12-16T21:17:07.719Z,4.73
2018-12-16T21:19:35.237Z,4.75
2018-12-16T21:22:02.692Z,4.76
2018-12-16T21:24:30.159Z,4.75
2018-12-16T21:26:57.631Z,4.74
2018-12-16T21:29:25.164Z,4.71
2018-12-16T21:31:52.587Z,4.70
2018-12-16T21:34:20.075Z,4.68
2018-12-16T21:36:47.497Z,4.67
2018-12-16T21:39:14.907Z,4.65
2018-12-16T21:41:42.347Z,4.64
2018-12-16T21:44:09.815Z,4.63
2018-12-16T21:46:37.251Z,4.62
2018-12-16T21:49:04.701Z,4.62
2018-12-16T21:51:32.975Z,4.60
2018-12-16T21:54:00.451Z,4.59
2018-12-16T21:56:27.917Z,4.61
2018-12-16T21:58:55.355Z,4.61
2018-12-16T22:01:22.808Z,4.62
2018-12-16T22:03:50.275Z,4.60
2018-12-16T22:06:17.697Z,4.59
2018-12-16T22:08:45.199Z,4.59
2018-12-16T22:11:13.261Z,4.57
2018-12-16T22:13:40.823Z,4.59
2018-12-16T22:16:08.368Z,4.56
2018-12-16T22:18:35.800Z,4.57
2018-12-16T22:21:03.281Z,4.59
2018-12-16T22:23:30.760Z,4.62
2018-12-16T22:25:58.189Z,4.62
2018-12-16T22:28:25.609Z,4.64
2018-12-16T22:30:53.124Z,4.65
2018-12-16T22:33:20.580Z,4.65
2018-12-16T22:35:48.051Z,4.66
2018-12-16T22:38:15.474Z,4.67
2018-12-16T22:40:42.888Z,4.68
2018-12-16T22:43:10.410Z,4.69
2018-12-16T22:45:37.834Z,4.71
2018-12-16T22:48:05.322Z,4.73
2018-12-16T22:50:32.807Z,4.74
2018-12-16T22:53:00.231Z,4.74
2018-12-16T22:55:27.665Z,4.77
2018-12-16T22:57:55.105Z,4.76
2018-12-16T23:00:22.715Z,4.77
2018-12-16T23:02:50.221Z,4.78
2018-12-16T23:05:17.688Z,4.80
2018-12-16T23:07:45.159Z,4.80
2018-12-16T23:10:12.640Z,4.80
2018-12-16T23:12:40.162Z,4.81
2018-12-16T23:15:07.771Z,4.83
2018-12-16T23:17:35.268Z,4.85
2018-12-16T23:20:08.373Z,4.85
2018-12-16T23:22:35.867Z,4.85
2018-12-16T23:25:03.390Z,4.86
2018-12-16T23:27:30.865Z,4.86
2018-12-16T23:29:58.319Z,4.89
2018-12-16T23:32:25.781Z,4.91
2018-12-16T23:34:53.251Z,4.91
2018-12-16T23:37:20.709Z,4.93
2018-12-16T23:39:48.121Z,4.92
2018-12-16T23:42:15.625Z,4.93
2018-12-16T23:44:43.091Z,4.95
2018-12-16T23:47:10.544Z,4.95
2018-12-16T23:49:38.001Z,4.97
2018-12-16T23:52:05.461Z,4.97
2018-12-16T23:54:32.907Z,4.96
2018-12-16T23:57:00.398Z,4.97
2018-12-16T23:59:27.892Z,4.96
